sensor_id;sensor_type;location;lat;lon;timestamp;P1;durP1;ratioP1;P2;durP2;ratioP2
10412;SDS011;5252;42.602;23.386;2022-11-15T00:00:27;96.45;;;64.88;;
10412;SDS011;5252;42.602;23.386;2022-11-15T00:02:54;60.67;;;40.53;;
10412;SDS011;5252;42.602;23.386;2022-11-15T00:05:21;44.33;;;28.30;;
10412;SDS011;5252;42.602;23.386;2022-11-15T00:07:47;44.70;;;29.73;;
10412;SDS011;5252;42.602;23.386;2022-11-15T00:10:16;33.85;;;24.73;;
10412;SDS011;5252;42.602;23.386;2022-11-15T00:12:42;27.50;;;21.58;;
10412;SDS011;5252;42.602;23.386;2022-11-15T00:15:09;18.30;;;14.65;;
10412;SDS011;5252;42.602;23.386;2022-11-15T00:17:35;19.25;;;15.43;;
10412;SDS011;5252;42.602;23.386;2022-11-15T00:20:02;14.68;;;11.27;;
10412;SDS011;5252;42.602;23.386;2022-11-15T00:22:31;15.25;;;10.35;;
10412;SDS011;5252;42.602;23.386;2022-11-15T00:24:57;13.75;;;10.27;;
10412;SDS011;5252;42.602;23.386;2022-11-15T00:27:26;13.35;;;9.57;;
10412;SDS011;5252;42.602;23.386;2022-11-15T00:29:52;16.27;;;13.93;;
10412;SDS011;5252;42.602;23.386;2022-11-15T00:32:19;13.52;;;11.25;;
10412;SDS011;5252;42.602;23.386;2022-11-15T00:34:45;18.30;;;14.77;;
10412;SDS011;5252;42.602;23.386;2022-11-15T00:37:12;18.90;;;14.90;;
10412;SDS011;5252;42.602;23.386;2022-11-15T00:39:39;19.40;;;15.70;;
10412;SDS011;5252;42.602;23.386;2022-11-15T00:42:05;19.45;;;15.93;;
10412;SDS011;5252;42.602;23.386;2022-11-15T00:44:33;16.45;;;14.50;;
10412;SDS011;5252;42.602;23.386;2022-11-15T00:47:00;18.90;;;13.18;;
10412;SDS011;5252;42.602;23.386;2022-11-15T00:49:26;28.45;;;22.00;;
10412;SDS011;5252;42.602;23.386;2022-11-15T00:51:53;30.33;;;23.13;;
10412;SDS011;5252;42.602;23.386;2022-11-15T00:54:19;30.70;;;22.83;;
10412;SDS011;5252;42.602;23.386;2022-11-15T00:56:46;24.95;;;18.50;;
10412;SDS011;5252;42.602;23.386;2022-11-15T00:59:12;30.77;;;24.02;;
10412;SDS011;5252;42.602;23.386;2022-11-15T01:01:40;59.60;;;34.50;;
10412;SDS011;5252;42.602;23.386;2022-11-15T01:04:07;118.53;;;57.90;;
10412;SDS011;5252;42.602;23.386;2022-11-15T01:06:33;68.60;;;39.60;;
10412;SDS011;5252;42.602;23.386;2022-11-15T01:09:00;46.65;;;29.35;;
10412;SDS011;5252;42.602;23.386;2022-11-15T01:11:27;30.50;;;18.98;;
10412;SDS011;5252;42.602;23.386;2022-11-15T01:13:53;21.23;;;14.02;;
10412;SDS011;5252;42.602;23.386;2022-11-15T01:16:21;19.73;;;14.25;;
10412;SDS011;5252;42.602;23.386;2022-11-15T01:18:49;23.02;;;16.63;;
10412;SDS011;5252;42.602;23.386;2022-11-15T01:21:17;71.50;;;50.67;;
10412;SDS011;5252;42.602;23.386;2022-11-15T01:23:44;77.30;;;54.67;;
10412;SDS011;5252;42.602;23.386;2022-11-15T01:26:11;56.38;;;40.28;;
10412;SDS011;5252;42.602;23.386;2022-11-15T01:28:39;62.80;;;45.42;;
10412;SDS011;5252;42.602;23.386;2022-11-15T01:31:07;52.60;;;39.35;;
10412;SDS011;5252;42.602;23.386;2022-11-15T01:33:35;22.13;;;15.60;;
10412;SDS011;5252;42.602;23.386;2022-11-15T01:36:04;27.70;;;18.30;;
10412;SDS011;5252;42.602;23.386;2022-11-15T01:38:31;25.00;;;14.63;;
10412;SDS011;5252;42.602;23.386;2022-11-15T01:40:58;17.27;;;12.35;;
10412;SDS011;5252;42.602;23.386;2022-11-15T01:43:25;17.50;;;10.93;;
10412;SDS011;5252;42.602;23.386;2022-11-15T01:45:52;15.70;;;10.68;;
10412;SDS011;5252;42.602;23.386;2022-11-15T01:48:21;21.27;;;12.52;;
10412;SDS011;5252;42.602;23.386;2022-11-15T01:50:48;21.55;;;13.55;;
10412;SDS011;5252;42.602;23.386;2022-11-15T01:53:17;20.73;;;12.57;;
10412;SDS011;5252;42.602;23.386;2022-11-15T01:55:45;15.98;;;10.15;;
10412;SDS011;5252;42.602;23.386;2022-11-15T01:58:13;15.35;;;10.15;;
10412;SDS011;5252;42.602;23.386;2022-11-15T02:00:40;15.15;;;10.88;;
10412;SDS011;5252;42.602;23.386;2022-11-15T02:03:06;18.05;;;11.68;;
10412;SDS011;5252;42.602;23.386;2022-11-15T02:05:33;30.92;;;21.77;;
10412;SDS011;5252;42.602;23.386;2022-11-15T02:08:01;26.45;;;18.67;;
10412;SDS011;5252;42.602;23.386;2022-11-15T02:10:29;23.83;;;14.70;;
10412;SDS011;5252;42.602;23.386;2022-11-15T02:12:55;21.40;;;13.98;;
10412;SDS011;5252;42.602;23.386;2022-11-15T02:15:23;22.48;;;15.25;;
10412;SDS011;5252;42.602;23.386;2022-11-15T02:17:54;44.22;;;25.90;;
10412;SDS011;5252;42.602;23.386;2022-11-15T02:20:31;51.65;;;28.88;;
10412;SDS011;5252;42.602;23.386;2022-11-15T02:23:04;49.60;;;27.00;;
10412;SDS011;5252;42.602;23.386;2022-11-15T02:25:39;22.77;;;14.68;;
10412;SDS011;5252;42.602;23.386;2022-11-15T02:28:10;21.75;;;13.43;;
10412;SDS011;5252;42.602;23.386;2022-11-15T02:30:43;16.45;;;10.52;;
10412;SDS011;5252;42.602;23.386;2022-11-15T02:33:14;12.80;;;9.20;;
10412;SDS011;5252;42.602;23.386;2022-11-15T02:35:44;14.57;;;9.27;;
10412;SDS011;5252;42.602;23.386;2022-11-15T02:38:16;17.17;;;11.88;;
10412;SDS011;5252;42.602;23.386;2022-11-15T02:40:45;16.17;;;10.65;;
10412;SDS011;5252;42.602;23.386;2022-11-15T02:43:14;12.80;;;7.70;;
10412;SDS011;5252;42.602;23.386;2022-11-15T02:46:03;12.57;;;8.35;;
10412;SDS011;5252;42.602;23.386;2022-11-15T02:48:32;12.43;;;8.55;;
10412;SDS011;5252;42.602;23.386;2022-11-15T02:51:00;13.65;;;8.38;;
10412;SDS011;5252;42.602;23.386;2022-11-15T02:53:27;13.65;;;8.63;;
10412;SDS011;5252;42.602;23.386;2022-11-15T02:55:54;15.68;;;9.88;;
10412;SDS011;5252;42.602;23.386;2022-11-15T03:01:09;14.55;;;9.75;;
10412;SDS011;5252;42.602;23.386;2022-11-15T03:03:46;13.98;;;9.65;;
10412;SDS011;5252;42.602;23.386;2022-11-15T03:06:19;15.60;;;9.55;;
10412;SDS011;5252;42.602;23.386;2022-11-15T03:08:48;17.80;;;11.15;;
10412;SDS011;5252;42.602;23.386;2022-11-15T03:11:17;18.90;;;13.38;;
10412;SDS011;5252;42.602;23.386;2022-11-15T03:13:45;23.60;;;13.05;;
10412;SDS011;5252;42.602;23.386;2022-11-15T03:16:16;22.73;;;14.05;;
10412;SDS011;5252;42.602;23.386;2022-11-15T03:18:47;21.90;;;13.15;;
10412;SDS011;5252;42.602;23.386;2022-11-15T03:21:16;25.00;;;14.77;;
10412;SDS011;5252;42.602;23.386;2022-11-15T03:23:45;27.50;;;17.02;;
10412;SDS011;5252;42.602;23.386;2022-11-15T03:26:13;31.20;;;17.27;;
10412;SDS011;5252;42.602;23.386;2022-11-15T03:28:41;36.30;;;19.92;;
10412;SDS011;5252;42.602;23.386;2022-11-15T03:31:09;35.08;;;19.70;;
10412;SDS011;5252;42.602;23.386;2022-11-15T03:33:52;40.17;;;21.70;;
10412;SDS011;5252;42.602;23.386;2022-11-15T03:36:20;38.78;;;20.77;;
10412;SDS011;5252;42.602;23.386;2022-11-15T03:38:48;42.55;;;24.13;;
10412;SDS011;5252;42.602;23.386;2022-11-15T03:41:15;38.10;;;21.63;;
10412;SDS011;5252;42.602;23.386;2022-11-15T03:43:44;46.85;;;25.70;;
10412;SDS011;5252;42.602;23.386;2022-11-15T03:46:14;47.63;;;25.50;;
10412;SDS011;5252;42.602;23.386;2022-11-15T03:48:41;51.75;;;27.60;;
10412;SDS011;5252;42.602;23.386;2022-11-15T03:51:11;51.60;;;28.13;;
10412;SDS011;5252;42.602;23.386;2022-11-15T03:53:38;55.25;;;28.23;;
10412;SDS011;5252;42.602;23.386;2022-11-15T03:56:04;53.17;;;28.40;;
10412;SDS011;5252;42.602;23.386;2022-11-15T03:58:31;47.20;;;26.92;;
10412;SDS011;5252;42.602;23.386;2022-11-15T04:00:58;49.45;;;26.20;;
10412;SDS011;5252;42.602;23.386;2022-11-15T04:03:25;49.00;;;25.58;;
10412;SDS011;5252;42.602;23.386;2022-11-15T04:05:52;35.25;;;20.58;;
10412;SDS011;5252;42.602;23.386;2022-11-15T04:08:20;32.75;;;20.42;;
10412;SDS011;5252;42.602;23.386;2022-11-15T04:10:48;27.92;;;16.92;;
10412;SDS011;5252;42.602;23.386;2022-11-15T04:13:14;22.23;;;11.90;;
10412;SDS011;5252;42.602;23.386;2022-11-15T04:15:41;21.13;;;12.25;;
10412;SDS011;5252;42.602;23.386;2022-11-15T04:18:08;16.27;;;10.05;;
10412;SDS011;5252;42.602;23.386;2022-11-15T04:20:35;16.33;;;11.13;;
10412;SDS011;5252;42.602;23.386;2022-11-15T04:23:21;14.88;;;9.48;;
10412;SDS011;5252;42.602;23.386;2022-11-15T04:26:07;13.95;;;9.63;;
10412;SDS011;5252;42.602;23.386;2022-11-15T04:28:35;17.08;;;10.15;;
10412;SDS011;5252;42.602;23.386;2022-11-15T04:31:21;18.73;;;10.60;;
10412;SDS011;5252;42.602;23.386;2022-11-15T04:33:48;15.85;;;10.20;;
10412;SDS011;5252;42.602;23.386;2022-11-15T04:36:15;16.98;;;11.80;;
10412;SDS011;5252;42.602;23.386;2022-11-15T04:39:00;17.73;;;11.05;;
10412;SDS011;5252;42.602;23.386;2022-11-15T04:41:27;19.90;;;10.77;;
10412;SDS011;5252;42.602;23.386;2022-11-15T04:43:54;18.00;;;11.55;;
10412;SDS011;5252;42.602;23.386;2022-11-15T04:46:20;20.50;;;12.02;;
10412;SDS011;5252;42.602;23.386;2022-11-15T04:48:47;17.23;;;10.80;;
10412;SDS011;5252;42.602;23.386;2022-11-15T04:51:13;16.80;;;11.18;;
10412;SDS011;5252;42.602;23.386;2022-11-15T04:53:40;17.42;;;10.13;;
10412;SDS011;5252;42.602;23.386;2022-11-15T04:56:08;15.50;;;10.13;;
10412;SDS011;5252;42.602;23.386;2022-11-15T04:58:35;16.73;;;10.55;;
10412;SDS011;5252;42.602;23.386;2022-11-15T05:01:06;17.67;;;11.20;;
10412;SDS011;5252;42.602;23.386;2022-11-15T05:03:32;16.73;;;10.93;;
10412;SDS011;5252;42.602;23.386;2022-11-15T05:06:16;16.23;;;10.68;;
10412;SDS011;5252;42.602;23.386;2022-11-15T05:08:43;16.92;;;9.88;;
10412;SDS011;5252;42.602;23.386;2022-11-15T05:11:11;17.67;;;10.32;;
10412;SDS011;5252;42.602;23.386;2022-11-15T05:13:38;16.83;;;10.15;;
10412;SDS011;5252;42.602;23.386;2022-11-15T05:16:04;19.30;;;11.68;;
10412;SDS011;5252;42.602;23.386;2022-11-15T05:18:31;17.08;;;11.07;;
10412;SDS011;5252;42.602;23.386;2022-11-15T05:21:02;20.05;;;12.18;;
10412;SDS011;5252;42.602;23.386;2022-11-15T05:23:29;23.20;;;14.43;;
10412;SDS011;5252;42.602;23.386;2022-11-15T05:25:58;20.48;;;13.20;;
10412;SDS011;5252;42.602;23.386;2022-11-15T05:28:26;21.60;;;14.63;;
10412;SDS011;5252;42.602;23.386;2022-11-15T05:30:52;24.08;;;14.68;;
10412;SDS011;5252;42.602;23.386;2022-11-15T05:33:19;27.10;;;18.15;;
10412;SDS011;5252;42.602;23.386;2022-11-15T05:35:46;32.63;;;19.15;;
10412;SDS011;5252;42.602;23.386;2022-11-15T05:38:15;34.38;;;20.52;;
10412;SDS011;5252;42.602;23.386;2022-11-15T05:40:42;34.72;;;20.80;;
10412;SDS011;5252;42.602;23.386;2022-11-15T05:43:08;35.40;;;21.05;;
10412;SDS011;5252;42.602;23.386;2022-11-15T05:45:37;40.80;;;24.77;;
10412;SDS011;5252;42.602;23.386;2022-11-15T05:48:04;40.30;;;24.20;;
10412;SDS011;5252;42.602;23.386;2022-11-15T05:50:32;46.03;;;26.27;;
10412;SDS011;5252;42.602;23.386;2022-11-15T05:52:59;47.58;;;26.95;;
10412;SDS011;5252;42.602;23.386;2022-11-15T05:55:26;46.97;;;26.17;;
10412;SDS011;5252;42.602;23.386;2022-11-15T05:57:53;44.10;;;26.42;;
10412;SDS011;5252;42.602;23.386;2022-11-15T06:00:20;48.63;;;27.75;;
10412;SDS011;5252;42.602;23.386;2022-11-15T06:02:48;47.55;;;27.25;;
10412;SDS011;5252;42.602;23.386;2022-11-15T06:05:15;48.40;;;27.23;;
10412;SDS011;5252;42.602;23.386;2022-11-15T06:07:41;46.13;;;26.13;;
10412;SDS011;5252;42.602;23.386;2022-11-15T06:10:09;41.65;;;26.27;;
10412;SDS011;5252;42.602;23.386;2022-11-15T06:12:35;48.38;;;28.02;;
10412;SDS011;5252;42.602;23.386;2022-11-15T06:15:02;51.22;;;28.05;;
10412;SDS011;5252;42.602;23.386;2022-11-15T06:17:29;44.75;;;28.08;;
10412;SDS011;5252;42.602;23.386;2022-11-15T06:19:57;43.35;;;28.05;;
10412;SDS011;5252;42.602;23.386;2022-11-15T06:22:23;46.35;;;29.63;;
10412;SDS011;5252;42.602;23.386;2022-11-15T06:24:50;50.65;;;31.15;;
10412;SDS011;5252;42.602;23.386;2022-11-15T06:27:16;61.22;;;37.60;;
10412;SDS011;5252;42.602;23.386;2022-11-15T06:29:43;64.78;;;38.85;;
10412;SDS011;5252;42.602;23.386;2022-11-15T06:32:10;116.40;;;44.25;;
10412;SDS011;5252;42.602;23.386;2022-11-15T06:34:36;167.30;;;49.80;;
10412;SDS011;5252;42.602;23.386;2022-11-15T06:37:04;148.52;;;48.33;;
10412;SDS011;5252;42.602;23.386;2022-11-15T06:39:31;146.30;;;48.63;;
10412;SDS011;5252;42.602;23.386;2022-11-15T06:41:57;108.97;;;51.28;;
10412;SDS011;5252;42.602;23.386;2022-11-15T06:44:24;81.85;;;46.58;;
10412;SDS011;5252;42.602;23.386;2022-11-15T06:46:51;82.60;;;45.03;;
10412;SDS011;5252;42.602;23.386;2022-11-15T06:49:17;56.25;;;45.17;;
10412;SDS011;5252;42.602;23.386;2022-11-15T06:51:44;56.72;;;43.45;;
10412;SDS011;5252;42.602;23.386;2022-11-15T06:54:12;63.05;;;42.97;;
10412;SDS011;5252;42.602;23.386;2022-11-15T06:56:38;51.78;;;41.35;;
10412;SDS011;5252;42.602;23.386;2022-11-15T06:59:05;50.08;;;39.10;;
10412;SDS011;5252;42.602;23.386;2022-11-15T07:01:31;45.72;;;36.22;;
10412;SDS011;5252;42.602;23.386;2022-11-15T07:03:58;45.35;;;37.05;;
10412;SDS011;5252;42.602;23.386;2022-11-15T07:06:24;40.58;;;35.25;;
10412;SDS011;5252;42.602;23.386;2022-11-15T07:08:51;40.53;;;34.47;;
10412;SDS011;5252;42.602;23.386;2022-11-15T07:11:19;40.95;;;34.15;;
10412;SDS011;5252;42.602;23.386;2022-11-15T07:13:45;40.45;;;34.75;;
10412;SDS011;5252;42.602;23.386;2022-11-15T07:16:12;41.22;;;34.35;;
10412;SDS011;5252;42.602;23.386;2022-11-15T07:18:39;38.55;;;33.20;;
10412;SDS011;5252;42.602;23.386;2022-11-15T07:21:07;27.80;;;24.80;;
10412;SDS011;5252;42.602;23.386;2022-11-15T07:23:35;28.27;;;25.30;;
10412;SDS011;5252;42.602;23.386;2022-11-15T07:26:02;28.67;;;25.58;;
10412;SDS011;5252;42.602;23.386;2022-11-15T07:28:30;31.25;;;27.35;;
10412;SDS011;5252;42.602;23.386;2022-11-15T07:30:57;32.33;;;27.77;;
10412;SDS011;5252;42.602;23.386;2022-11-15T07:33:23;34.97;;;29.15;;
10412;SDS011;5252;42.602;23.386;2022-11-15T07:35:50;33.80;;;28.45;;
10412;SDS011;5252;42.602;23.386;2022-11-15T07:38:16;35.67;;;29.52;;
10412;SDS011;5252;42.602;23.386;2022-11-15T07:40:45;34.97;;;29.75;;
10412;SDS011;5252;42.602;23.386;2022-11-15T07:43:12;35.58;;;29.02;;
10412;SDS011;5252;42.602;23.386;2022-11-15T07:45:43;36.47;;;28.83;;
10412;SDS011;5252;42.602;23.386;2022-11-15T07:48:10;71.25;;;29.80;;
10412;SDS011;5252;42.602;23.386;2022-11-15T07:50:37;36.75;;;28.92;;
10412;SDS011;5252;42.602;23.386;2022-11-15T07:53:07;44.50;;;29.10;;
10412;SDS011;5252;42.602;23.386;2022-11-15T07:55:34;37.22;;;28.83;;
10412;SDS011;5252;42.602;23.386;2022-11-15T07:58:01;41.65;;;29.10;;
10412;SDS011;5252;42.602;23.386;2022-11-15T08:00:28;37.38;;;29.67;;
10412;SDS011;5252;42.602;23.386;2022-11-15T08:03:02;37.70;;;28.40;;
10412;SDS011;5252;42.602;23.386;2022-11-15T08:05:29;43.95;;;30.02;;
10412;SDS011;5252;42.602;23.386;2022-11-15T08:07:55;36.42;;;29.60;;
10412;SDS011;5252;42.602;23.386;2022-11-15T08:10:22;38.17;;;31.17;;
10412;SDS011;5252;42.602;23.386;2022-11-15T08:12:56;38.97;;;30.75;;
10412;SDS011;5252;42.602;23.386;2022-11-15T08:15:22;43.22;;;33.72;;
10412;SDS011;5252;42.602;23.386;2022-11-15T08:17:52;40.85;;;32.45;;
10412;SDS011;5252;42.602;23.386;2022-11-15T08:20:20;37.78;;;30.52;;
10412;SDS011;5252;42.602;23.386;2022-11-15T08:22:47;36.90;;;30.17;;
10412;SDS011;5252;42.602;23.386;2022-11-15T08:25:14;38.75;;;31.30;;
10412;SDS011;5252;42.602;23.386;2022-11-15T08:27:41;41.17;;;32.90;;
10412;SDS011;5252;42.602;23.386;2022-11-15T08:30:08;41.53;;;34.53;;
10412;SDS011;5252;42.602;23.386;2022-11-15T08:32:34;43.45;;;34.33;;
10412;SDS011;5252;42.602;23.386;2022-11-15T08:35:01;47.55;;;34.03;;
10412;SDS011;5252;42.602;23.386;2022-11-15T08:37:29;42.42;;;33.33;;
10412;SDS011;5252;42.602;23.386;2022-11-15T08:39:55;40.85;;;33.30;;
10412;SDS011;5252;42.602;23.386;2022-11-15T08:42:22;46.28;;;37.88;;
10412;SDS011;5252;42.602;23.386;2022-11-15T08:44:49;45.55;;;36.00;;
10412;SDS011;5252;42.602;23.386;2022-11-15T08:47:15;51.40;;;39.38;;
10412;SDS011;5252;42.602;23.386;2022-11-15T08:49:42;47.78;;;37.78;;
10412;SDS011;5252;42.602;23.386;2022-11-15T08:52:08;46.25;;;36.60;;
10412;SDS011;5252;42.602;23.386;2022-11-15T08:54:36;50.85;;;37.58;;
10412;SDS011;5252;42.602;23.386;2022-11-15T08:57:03;48.05;;;37.17;;
10412;SDS011;5252;42.602;23.386;2022-11-15T08:59:29;50.30;;;38.40;;
10412;SDS011;5252;42.602;23.386;2022-11-15T09:01:57;46.33;;;35.90;;
10412;SDS011;5252;42.602;23.386;2022-11-15T09:04:24;51.08;;;37.70;;
10412;SDS011;5252;42.602;23.386;2022-11-15T09:06:50;47.83;;;36.30;;
10412;SDS011;5252;42.602;23.386;2022-11-15T09:09:17;50.03;;;37.38;;
10412;SDS011;5252;42.602;23.386;2022-11-15T09:11:45;51.60;;;38.05;;
10412;SDS011;5252;42.602;23.386;2022-11-15T09:14:11;44.80;;;36.50;;
10412;SDS011;5252;42.602;23.386;2022-11-15T09:16:38;47.83;;;37.22;;
10412;SDS011;5252;42.602;23.386;2022-11-15T09:19:04;46.95;;;36.85;;
10412;SDS011;5252;42.602;23.386;2022-11-15T09:21:31;47.70;;;36.13;;
10412;SDS011;5252;42.602;23.386;2022-11-15T09:23:58;46.33;;;37.38;;
10412;SDS011;5252;42.602;23.386;2022-11-15T09:26:24;52.22;;;39.92;;
10412;SDS011;5252;42.602;23.386;2022-11-15T09:28:52;52.85;;;39.08;;
10412;SDS011;5252;42.602;23.386;2022-11-15T09:31:19;53.40;;;38.10;;
10412;SDS011;5252;42.602;23.386;2022-11-15T09:33:46;48.95;;;37.38;;
10412;SDS011;5252;42.602;23.386;2022-11-15T09:36:12;51.28;;;39.35;;
10412;SDS011;5252;42.602;23.386;2022-11-15T09:38:39;55.40;;;40.17;;
10412;SDS011;5252;42.602;23.386;2022-11-15T09:41:09;53.78;;;41.40;;
10412;SDS011;5252;42.602;23.386;2022-11-15T09:43:43;56.08;;;40.03;;
10412;SDS011;5252;42.602;23.386;2022-11-15T09:46:15;58.95;;;41.55;;
10412;SDS011;5252;42.602;23.386;2022-11-15T09:48:49;56.05;;;40.67;;
10412;SDS011;5252;42.602;23.386;2022-11-15T09:51:20;57.50;;;40.38;;
10412;SDS011;5252;42.602;23.386;2022-11-15T09:53:54;60.97;;;42.03;;
10412;SDS011;5252;42.602;23.386;2022-11-15T09:56:22;54.92;;;40.88;;
10412;SDS011;5252;42.602;23.386;2022-11-15T09:58:54;57.28;;;41.22;;
10412;SDS011;5252;42.602;23.386;2022-11-15T10:01:28;62.20;;;44.90;;
10412;SDS011;5252;42.602;23.386;2022-11-15T10:03:56;61.75;;;42.67;;
10412;SDS011;5252;42.602;23.386;2022-11-15T10:06:24;57.38;;;41.40;;
10412;SDS011;5252;42.602;23.386;2022-11-15T10:08:53;68.03;;;47.58;;
10412;SDS011;5252;42.602;23.386;2022-11-15T10:11:23;66.07;;;47.22;;
10412;SDS011;5252;42.602;23.386;2022-11-15T10:13:51;65.03;;;46.08;;
10412;SDS011;5252;42.602;23.386;2022-11-15T10:16:28;62.03;;;44.88;;
10412;SDS011;5252;42.602;23.386;2022-11-15T10:19:00;62.30;;;43.17;;
10412;SDS011;5252;42.602;23.386;2022-11-15T10:21:33;60.05;;;44.45;;
10412;SDS011;5252;42.602;23.386;2022-11-15T10:24:07;61.22;;;42.85;;
10412;SDS011;5252;42.602;23.386;2022-11-15T10:26:36;61.20;;;42.88;;
10412;SDS011;5252;42.602;23.386;2022-11-15T10:29:03;60.75;;;44.83;;
10412;SDS011;5252;42.602;23.386;2022-11-15T10:31:31;61.15;;;44.15;;
10412;SDS011;5252;42.602;23.386;2022-11-15T10:33:59;58.03;;;42.22;;
10412;SDS011;5252;42.602;23.386;2022-11-15T10:36:30;60.53;;;44.15;;
10412;SDS011;5252;42.602;23.386;2022-11-15T10:38:58;58.13;;;42.42;;
10412;SDS011;5252;42.602;23.386;2022-11-15T10:41:37;52.72;;;40.30;;
10412;SDS011;5252;42.602;23.386;2022-11-15T10:44:20;52.08;;;37.47;;
10412;SDS011;5252;42.602;23.386;2022-11-15T10:47:04;51.97;;;37.10;;
10412;SDS011;5252;42.602;23.386;2022-11-15T10:49:31;53.17;;;39.72;;
10412;SDS011;5252;42.602;23.386;2022-11-15T10:51:59;52.72;;;39.13;;
10412;SDS011;5252;42.602;23.386;2022-11-15T10:54:27;56.53;;;38.70;;
10412;SDS011;5252;42.602;23.386;2022-11-15T10:56:54;54.55;;;40.20;;
10412;SDS011;5252;42.602;23.386;2022-11-15T10:59:23;54.22;;;38.60;;
10412;SDS011;5252;42.602;23.386;2022-11-15T11:01:52;54.33;;;39.75;;
10412;SDS011;5252;42.602;23.386;2022-11-15T11:04:18;58.25;;;39.67;;
10412;SDS011;5252;42.602;23.386;2022-11-15T11:06:48;57.95;;;40.67;;
10412;SDS011;5252;42.602;23.386;2022-11-15T11:09:22;53.67;;;38.97;;
10412;SDS011;5252;42.602;23.386;2022-11-15T11:11:50;51.85;;;38.08;;
10412;SDS011;5252;42.602;23.386;2022-11-15T11:14:20;51.53;;;37.33;;
10412;SDS011;5252;42.602;23.386;2022-11-15T11:16:48;53.78;;;38.33;;
10412;SDS011;5252;42.602;23.386;2022-11-15T11:22:01;54.20;;;38.33;;
10412;SDS011;5252;42.602;23.386;2022-11-15T11:24:30;52.33;;;37.20;;
10412;SDS011;5252;42.602;23.386;2022-11-15T11:27:03;55.38;;;38.25;;
10412;SDS011;5252;42.602;23.386;2022-11-15T11:29:38;51.35;;;37.83;;
10412;SDS011;5252;42.602;23.386;2022-11-15T11:32:10;49.47;;;36.58;;
10412;SDS011;5252;42.602;23.386;2022-11-15T11:34:45;54.72;;;37.80;;
10412;SDS011;5252;42.602;23.386;2022-11-15T11:37:14;54.00;;;37.40;;
10412;SDS011;5252;42.602;23.386;2022-11-15T11:39:45;51.03;;;37.78;;
10412;SDS011;5252;42.602;23.386;2022-11-15T11:42:15;51.05;;;38.58;;
10412;SDS011;5252;42.602;23.386;2022-11-15T11:44:47;50.42;;;35.83;;
10412;SDS011;5252;42.602;23.386;2022-11-15T11:47:19;51.97;;;36.83;;
10412;SDS011;5252;42.602;23.386;2022-11-15T11:49:49;54.05;;;36.58;;
10412;SDS011;5252;42.602;23.386;2022-11-15T11:52:19;48.70;;;35.55;;
10412;SDS011;5252;42.602;23.386;2022-11-15T11:54:50;48.05;;;35.72;;
10412;SDS011;5252;42.602;23.386;2022-11-15T11:57:22;48.90;;;36.88;;
10412;SDS011;5252;42.602;23.386;2022-11-15T11:59:51;48.58;;;35.00;;
10412;SDS011;5252;42.602;23.386;2022-11-15T12:02:21;51.60;;;36.03;;
10412;SDS011;5252;42.602;23.386;2022-11-15T12:04:51;53.42;;;36.42;;
10412;SDS011;5252;42.602;23.386;2022-11-15T12:07:22;50.78;;;35.88;;
10412;SDS011;5252;42.602;23.386;2022-11-15T12:09:51;52.08;;;35.95;;
10412;SDS011;5252;42.602;23.386;2022-11-15T12:12:23;47.92;;;35.97;;
10412;SDS011;5252;42.602;23.386;2022-11-15T12:14:51;50.47;;;36.10;;
10412;SDS011;5252;42.602;23.386;2022-11-15T12:17:21;51.40;;;35.45;;
10412;SDS011;5252;42.602;23.386;2022-11-15T12:19:49;50.95;;;36.40;;
10412;SDS011;5252;42.602;23.386;2022-11-15T12:22:17;52.30;;;36.55;;
10412;SDS011;5252;42.602;23.386;2022-11-15T12:24:48;54.50;;;36.20;;
10412;SDS011;5252;42.602;23.386;2022-11-15T12:27:17;48.28;;;35.22;;
10412;SDS011;5252;42.602;23.386;2022-11-15T12:29:45;50.53;;;35.80;;
10412;SDS011;5252;42.602;23.386;2022-11-15T12:32:17;51.42;;;36.53;;
10412;SDS011;5252;42.602;23.386;2022-11-15T12:34:45;45.80;;;34.08;;
10412;SDS011;5252;42.602;23.386;2022-11-15T12:40:16;50.85;;;33.78;;
10412;SDS011;5252;42.602;23.386;2022-11-15T12:42:56;54.45;;;36.25;;
10412;SDS011;5252;42.602;23.386;2022-11-15T12:45:26;49.88;;;34.15;;
10412;SDS011;5252;42.602;23.386;2022-11-15T12:47:53;47.17;;;33.90;;
10412;SDS011;5252;42.602;23.386;2022-11-15T12:55:58;47.05;;;34.50;;
10412;SDS011;5252;42.602;23.386;2022-11-15T12:58:40;47.08;;;33.35;;
10412;SDS011;5252;42.602;23.386;2022-11-15T13:01:07;46.13;;;34.05;;
10412;SDS011;5252;42.602;23.386;2022-11-15T13:03:34;45.83;;;33.53;;
10412;SDS011;5252;42.602;23.386;2022-11-15T13:06:04;45.97;;;33.42;;
10412;SDS011;5252;42.602;23.386;2022-11-15T13:08:41;48.78;;;34.13;;
10412;SDS011;5252;42.602;23.386;2022-11-15T13:13:54;47.65;;;33.10;;
10412;SDS011;5252;42.602;23.386;2022-11-15T13:16:21;47.53;;;32.72;;
10412;SDS011;5252;42.602;23.386;2022-11-15T13:18:52;46.80;;;33.58;;
10412;SDS011;5252;42.602;23.386;2022-11-15T13:21:20;45.78;;;32.30;;
10412;SDS011;5252;42.602;23.386;2022-11-15T13:24:09;45.53;;;31.92;;
10412;SDS011;5252;42.602;23.386;2022-11-15T13:26:37;49.40;;;32.85;;
10412;SDS011;5252;42.602;23.386;2022-11-15T13:29:12;43.55;;;33.15;;
10412;SDS011;5252;42.602;23.386;2022-11-15T13:31:41;44.10;;;31.83;;
10412;SDS011;5252;42.602;23.386;2022-11-15T13:34:16;43.13;;;31.60;;
10412;SDS011;5252;42.602;23.386;2022-11-15T13:36:43;48.30;;;32.78;;
10412;SDS011;5252;42.602;23.386;2022-11-15T13:39:12;46.95;;;33.05;;
10412;SDS011;5252;42.602;23.386;2022-11-15T13:41:44;45.72;;;33.03;;
10412;SDS011;5252;42.602;23.386;2022-11-15T13:44:18;44.72;;;30.92;;
10412;SDS011;5252;42.602;23.386;2022-11-15T13:46:45;43.75;;;30.83;;
10412;SDS011;5252;42.602;23.386;2022-11-15T13:49:12;45.03;;;30.70;;
10412;SDS011;5252;42.602;23.386;2022-11-15T13:51:41;45.28;;;31.38;;
10412;SDS011;5252;42.602;23.386;2022-11-15T13:54:12;46.95;;;31.50;;
10412;SDS011;5252;42.602;23.386;2022-11-15T13:56:40;44.70;;;30.00;;
10412;SDS011;5252;42.602;23.386;2022-11-15T13:59:09;48.75;;;32.40;;
10412;SDS011;5252;42.602;23.386;2022-11-15T14:01:39;52.20;;;32.33;;
10412;SDS011;5252;42.602;23.386;2022-11-15T14:04:10;48.17;;;31.45;;
10412;SDS011;5252;42.602;23.386;2022-11-15T14:06:43;48.38;;;32.75;;
10412;SDS011;5252;42.602;23.386;2022-11-15T14:12:27;49.85;;;33.97;;
10412;SDS011;5252;42.602;23.386;2022-11-15T14:14:55;51.15;;;34.92;;
10412;SDS011;5252;42.602;23.386;2022-11-15T14:17:32;50.08;;;35.83;;
10412;SDS011;5252;42.602;23.386;2022-11-15T14:19:59;51.08;;;34.17;;
10412;SDS011;5252;42.602;23.386;2022-11-15T14:22:26;48.60;;;34.63;;
10412;SDS011;5252;42.602;23.386;2022-11-15T14:25:07;49.72;;;35.03;;
10412;SDS011;5252;42.602;23.386;2022-11-15T14:27:39;46.33;;;32.03;;
10412;SDS011;5252;42.602;23.386;2022-11-15T14:30:05;43.15;;;29.90;;
10412;SDS011;5252;42.602;23.386;2022-11-15T14:32:39;38.75;;;28.20;;
10412;SDS011;5252;42.602;23.386;2022-11-15T14:35:08;34.20;;;25.17;;
10412;SDS011;5252;42.602;23.386;2022-11-15T14:37:37;34.08;;;25.30;;
10412;SDS011;5252;42.602;23.386;2022-11-15T14:40:04;29.67;;;22.20;;
10412;SDS011;5252;42.602;23.386;2022-11-15T14:42:31;27.60;;;21.98;;
10412;SDS011;5252;42.602;23.386;2022-11-15T14:44:59;32.35;;;23.10;;
10412;SDS011;5252;42.602;23.386;2022-11-15T14:47:26;34.75;;;24.60;;
10412;SDS011;5252;42.602;23.386;2022-11-15T14:49:54;31.50;;;22.25;;